createdAt,value
2023-05-05T00:03:05.615Z,53.49
2023-05-05T00:05:33.333Z,53.78
2023-05-05T00:08:00.936Z,53.87
2023-05-05T00:10:28.634Z,54.02
2023-05-05T00:12:56.267Z,54.00
2023-05-05T01:00:57.928Z,54.48
2023-05-05T01:03:27.152Z,54.36
2023-05-05T01:05:56.849Z,54.47
2023-05-05T01:08:28.071Z,54.35
2023-05-05T01:10:56.455Z,54.48
2023-05-05T01:13:26.710Z,54.32
2023-05-05T01:48:04.538Z,55.07
2023-05-05T01:50:32.292Z,54.72
2023-05-05T01:53:00.004Z,55.19
2023-05-05T01:55:27.820Z,55.17
2023-05-05T01:57:56.620Z,55.01
2023-05-05T02:47:14.445Z,55.08
2023-05-05T02:49:42.179Z,55.24
2023-05-05T02:52:09.857Z,55.16
2023-05-05T02:54:39.307Z,55.19
2023-05-05T02:57:14.297Z,55.05
2023-05-05T02:59:47.144Z,55.15
2023-05-05T03:47:49.606Z,55.32
2023-05-05T03:50:17.552Z,55.38
2023-05-05T03:52:45.389Z,55.26
2023-05-05T03:55:13.040Z,55.32
2023-05-05T03:57:40.729Z,55.30
2023-05-05T04:46:15.023Z,48.61
2023-05-05T04:48:44.166Z,48.56
2023-05-05T04:51:12.761Z,48.44
2023-05-05T04:53:41.174Z,48.36
2023-05-05T04:56:08.848Z,48.71
2023-05-05T04:58:36.499Z,49.62
2023-05-05T05:01:04.432Z,50.09
2023-05-05T05:03:32.998Z,51.19
2023-05-05T05:06:02.215Z,51.54
2023-05-05T05:08:29.885Z,52.27
2023-05-05T05:10:57.494Z,52.49
2023-05-05T05:13:25.458Z,52.63
2023-05-05T05:15:53.198Z,52.51
2023-05-05T05:18:20.814Z,52.73
2023-05-05T05:20:49.973Z,52.71
2023-05-05T05:23:18.952Z,52.70
2023-05-05T05:25:47.183Z,52.79
2023-05-05T05:28:17.212Z,52.71
2023-05-05T05:30:49.955Z,52.67
2023-05-05T05:33:17.655Z,52.57
2023-05-05T05:35:45.898Z,52.30
2023-05-05T05:38:14.098Z,52.94
2023-05-05T05:40:43.148Z,52.81
2023-05-05T05:43:10.810Z,52.94
2023-05-05T05:45:39.744Z,53.17
2023-05-05T05:48:09.092Z,53.40
2023-05-05T05:50:36.798Z,53.20
2023-05-05T05:53:05.009Z,53.44
2023-05-05T05:55:32.658Z,53.17
2023-05-05T05:58:02.155Z,53.23
2023-05-05T06:00:29.994Z,53.21
2023-05-05T06:03:04.366Z,53.13
2023-05-05T06:05:36.036Z,53.06
2023-05-05T06:08:03.837Z,53.16
2023-05-05T06:10:34.532Z,53.28
2023-05-05T06:13:08.386Z,53.13
2023-05-05T06:15:38.533Z,53.21
2023-05-05T06:18:07.228Z,53.19
2023-05-05T06:20:34.927Z,53.14
2023-05-05T06:23:02.530Z,53.19
2023-05-05T06:25:33.375Z,53.45
2023-05-05T06:28:01.069Z,53.18
2023-05-05T06:30:30.070Z,53.24
2023-05-05T06:32:57.733Z,53.37
2023-05-05T06:35:25.377Z,53.18
2023-05-05T06:37:52.968Z,53.21
2023-05-05T06:40:20.968Z,53.31
2023-05-05T06:42:48.649Z,53.17
2023-05-05T06:45:22.254Z,53.32
2023-05-05T06:47:52.411Z,53.06
2023-05-05T06:50:20.224Z,53.23
2023-05-05T06:52:47.813Z,53.06
2023-05-05T06:55:15.800Z,53.04
2023-05-05T06:57:43.431Z,53.07
2023-05-05T07:00:12.042Z,53.04
2023-05-05T07:02:40.119Z,52.94
2023-05-05T07:05:09.418Z,52.95
2023-05-05T07:07:37.112Z,52.97
2023-05-05T07:10:04.927Z,53.07
2023-05-05T07:12:32.615Z,53.20
2023-05-05T07:15:04.772Z,53.40
2023-05-05T07:17:37.217Z,53.46
2023-05-05T07:20:05.029Z,53.47
2023-05-05T07:22:34.092Z,53.47
2023-05-05T07:25:01.668Z,53.37
2023-05-05T07:27:29.324Z,53.36
2023-05-05T07:29:56.924Z,53.48
2023-05-05T07:32:25.055Z,53.39
2023-05-05T07:34:52.758Z,53.63
2023-05-05T07:37:20.484Z,53.43
2023-05-05T07:39:49.515Z,53.43
2023-05-05T07:42:17.189Z,53.35
2023-05-05T07:44:44.834Z,53.31
2023-05-05T07:47:12.541Z,53.35
2023-05-05T07:49:40.162Z,53.62
2023-05-05T07:52:07.884Z,52.83
2023-05-05T07:54:35.473Z,51.47
2023-05-05T07:57:04.597Z,51.36
2023-05-05T07:59:32.362Z,50.49
2023-05-05T08:02:00.045Z,50.30
2023-05-05T08:04:27.651Z,48.08
2023-05-05T08:06:55.310Z,48.55
2023-05-05T08:09:22.994Z,48.70
2023-05-05T08:11:50.664Z,48.18
2023-05-05T08:14:22.226Z,47.90
2023-05-05T08:16:49.856Z,48.04
2023-05-05T08:19:25.274Z,48.83
2023-05-05T08:21:56.122Z,47.57
2023-05-05T08:24:23.754Z,47.88
2023-05-05T08:26:51.532Z,47.82
2023-05-05T08:29:20.486Z,47.98
2023-05-05T08:31:48.097Z,47.66
2023-05-05T08:34:16.079Z,48.19
2023-05-05T08:36:43.704Z,47.47
2023-05-05T08:39:11.334Z,48.34
2023-05-05T08:41:38.949Z,47.74
2023-05-05T08:44:06.584Z,47.07
2023-05-05T08:46:35.586Z,47.95
2023-05-05T08:49:03.784Z,48.65
2023-05-05T08:51:32.144Z,48.89
2023-05-05T08:54:01.989Z,48.29
2023-05-05T08:56:32.490Z,47.96
2023-05-05T08:59:01.113Z,48.47
2023-05-05T09:01:28.892Z,46.88
2023-05-05T09:03:57.979Z,45.76
2023-05-05T09:06:26.841Z,46.40
2023-05-05T09:08:54.552Z,47.50
2023-05-05T09:11:23.098Z,46.97
2023-05-05T09:13:50.859Z,46.77
2023-05-05T09:16:18.457Z,45.88
2023-05-05T09:18:46.157Z,46.88
2023-05-05T09:21:21.966Z,46.57
2023-05-05T09:24:08.648Z,47.26
2023-05-05T09:26:37.146Z,47.82
2023-05-05T09:29:04.808Z,47.70
2023-05-05T09:31:32.605Z,48.29
2023-05-05T09:34:01.054Z,48.59
2023-05-05T09:36:47.617Z,48.94
2023-05-05T09:39:15.393Z,48.89
2023-05-05T09:41:43.598Z,49.05
2023-05-05T09:44:11.401Z,49.14
2023-05-05T09:46:39.124Z,49.22
2023-05-05T09:49:13.604Z,49.24
2023-05-05T09:51:41.194Z,49.39
2023-05-05T09:54:10.191Z,49.40
2023-05-05T09:56:38.370Z,49.36
2023-05-05T09:59:09.056Z,49.54
2023-05-05T10:01:36.678Z,49.48
2023-05-05T10:04:04.264Z,49.65
2023-05-05T10:06:42.037Z,49.65
2023-05-05T10:09:11.098Z,49.68
2023-05-05T10:11:38.691Z,49.78
2023-05-05T10:14:06.288Z,49.86
2023-05-05T10:16:33.904Z,49.85
2023-05-05T10:19:02.785Z,49.96
2023-05-05T10:21:32.027Z,49.72
2023-05-05T10:24:01.710Z,49.95
2023-05-05T10:26:30.629Z,49.93
2023-05-05T10:28:59.643Z,49.89
2023-05-05T10:31:28.501Z,49.86
2023-05-05T10:33:59.472Z,49.83
2023-05-05T10:36:27.863Z,49.91
2023-05-05T10:38:56.043Z,49.84
2023-05-05T10:41:23.867Z,49.92
2023-05-05T10:43:52.826Z,49.93
2023-05-05T10:46:20.491Z,49.86
2023-05-05T10:48:49.052Z,49.85
2023-05-05T10:51:31.117Z,49.87
2023-05-05T10:54:08.791Z,49.95
2023-05-05T10:56:36.519Z,49.99
2023-05-05T10:59:05.518Z,49.95
2023-05-05T11:01:33.803Z,49.92
2023-05-05T11:04:20.365Z,49.98
2023-05-05T11:07:06.731Z,49.92
2023-05-05T11:09:37.042Z,49.95
2023-05-05T11:12:05.235Z,50.05
2023-05-05T11:14:34.179Z,49.99
2023-05-05T11:17:01.841Z,49.92
2023-05-05T11:19:48.548Z,50.13
2023-05-05T11:22:17.472Z,49.97
2023-05-05T11:24:45.117Z,49.92
2023-05-05T11:27:12.671Z,50.04
2023-05-05T11:30:07.218Z,50.12
2023-05-05T11:32:35.947Z,50.08
2023-05-05T11:35:03.916Z,50.02
2023-05-05T11:37:31.517Z,50.19
2023-05-05T11:40:04.432Z,50.21
2023-05-05T11:42:32.291Z,50.12
2023-05-05T11:44:59.914Z,50.06
2023-05-05T11:47:32.397Z,50.18
2023-05-05T11:50:00.447Z,50.20
2023-05-05T11:52:28.447Z,50.14
2023-05-05T11:55:00.760Z,50.15
2023-05-05T11:57:29.066Z,50.16
2023-05-05T11:59:56.958Z,50.40
2023-05-05T12:02:24.752Z,50.30
2023-05-05T12:04:54.006Z,50.43
2023-05-05T12:07:22.039Z,50.27
2023-05-05T12:09:49.908Z,50.32
2023-05-05T12:12:17.623Z,50.41
2023-05-05T12:14:50.478Z,50.29
2023-05-05T12:17:18.555Z,50.38
2023-05-05T12:19:46.720Z,50.36
2023-05-05T12:22:20.228Z,50.36
2023-05-05T12:24:54.922Z,50.54
2023-05-05T12:27:22.755Z,50.49
2023-05-05T12:29:50.518Z,50.44
2023-05-05T12:32:21.629Z,50.52
2023-05-05T12:34:49.662Z,50.54
2023-05-05T12:37:19.098Z,50.63
2023-05-05T12:39:48.094Z,50.64
2023-05-05T12:42:15.672Z,50.49
2023-05-05T12:44:44.821Z,50.62
2023-05-05T12:47:12.376Z,50.54
2023-05-05T12:49:46.232Z,50.57
2023-05-05T12:52:14.554Z,50.63
2023-05-05T12:54:56.070Z,50.72
2023-05-05T12:57:23.691Z,50.59
2023-05-05T12:59:51.793Z,50.62
2023-05-05T13:02:19.499Z,50.63
2023-05-05T13:04:50.473Z,50.78
2023-05-05T13:07:19.535Z,50.57
2023-05-05T13:09:47.989Z,50.80
2023-05-05T13:12:17.775Z,50.74
2023-05-05T13:14:46.429Z,50.79
2023-05-05T13:17:14.201Z,50.83
2023-05-05T13:19:46.269Z,50.71
2023-05-05T13:22:14.259Z,50.85
2023-05-05T13:24:50.677Z,50.86
2023-05-05T13:27:21.870Z,50.70
2023-05-05T13:29:49.479Z,50.75
2023-05-05T13:32:17.174Z,50.76
2023-05-05T13:34:44.809Z,50.64
2023-05-05T13:37:12.491Z,50.78
2023-05-05T13:39:40.121Z,50.73
2023-05-05T13:42:07.738Z,50.75
2023-05-05T13:44:36.810Z,50.92
2023-05-05T13:47:04.548Z,50.74
2023-05-05T13:49:32.297Z,50.74
2023-05-05T13:51:59.931Z,50.91
2023-05-05T13:54:28.030Z,50.79
2023-05-05T13:56:55.623Z,50.83
2023-05-05T13:59:23.177Z,50.86
2023-05-05T14:01:52.144Z,50.88
2023-05-05T14:04:19.877Z,50.84
2023-05-05T14:06:47.516Z,50.97
2023-05-05T14:09:15.087Z,50.99
2023-05-05T14:11:42.675Z,50.91
2023-05-05T14:14:10.743Z,51.05
2023-05-05T14:16:38.408Z,50.99
2023-05-05T14:19:07.431Z,51.05
2023-05-05T14:21:35.050Z,50.85
2023-05-05T14:24:02.588Z,50.92
2023-05-05T14:26:30.163Z,51.03
2023-05-05T14:28:57.839Z,50.90
2023-05-05T14:31:25.480Z,50.86
2023-05-05T14:33:53.426Z,50.91
2023-05-05T14:36:23.432Z,50.94
2023-05-05T14:38:51.045Z,51.00
2023-05-05T14:41:18.667Z,51.05
2023-05-05T14:43:46.321Z,51.09
2023-05-05T14:46:14.113Z,51.15
2023-05-05T14:48:41.732Z,51.11
2023-05-05T14:51:09.408Z,51.19
2023-05-05T14:53:38.384Z,51.04
2023-05-05T14:56:06.253Z,51.14
2023-05-05T14:58:33.856Z,51.11
2023-05-05T15:01:01.451Z,51.04
2023-05-05T15:03:29.190Z,51.07
2023-05-05T15:05:57.001Z,51.05
2023-05-05T15:08:24.673Z,51.01
2023-05-05T15:10:53.654Z,51.12
2023-05-05T15:13:21.404Z,51.06
2023-05-05T15:15:50.007Z,51.14
2023-05-05T15:18:17.648Z,51.13
2023-05-05T15:20:45.298Z,51.10
2023-05-05T15:23:12.878Z,51.14
2023-05-05T15:25:40.468Z,51.07
2023-05-05T15:28:09.526Z,51.19
2023-05-05T15:30:37.326Z,51.11
2023-05-05T15:33:05.049Z,51.15
2023-05-05T15:35:32.735Z,51.19
2023-05-05T15:38:00.323Z,51.11
2023-05-05T15:40:27.962Z,51.12
2023-05-05T15:42:55.621Z,51.19
2023-05-05T15:45:24.607Z,51.16
2023-05-05T15:47:53.541Z,51.25
2023-05-05T15:50:21.759Z,51.23
2023-05-05T15:52:50.146Z,51.27
2023-05-05T15:55:17.855Z,51.29
2023-05-05T15:57:45.458Z,51.27
2023-05-05T16:00:13.708Z,51.33
2023-05-05T16:02:42.689Z,51.33
2023-05-05T16:05:10.953Z,51.29
2023-05-05T16:07:38.714Z,51.33
2023-05-05T16:10:06.719Z,51.22
2023-05-05T16:12:34.344Z,51.27
2023-05-05T16:15:02.078Z,51.24
2023-05-05T16:17:29.798Z,51.22
2023-05-05T16:19:58.981Z,51.33
2023-05-05T16:22:26.769Z,51.25
2023-05-05T16:24:54.352Z,51.37
2023-05-05T16:27:22.246Z,51.31
2023-05-05T16:29:49.867Z,51.42
2023-05-05T16:32:17.444Z,51.33
2023-05-05T16:34:45.227Z,51.35
2023-05-05T16:37:14.486Z,51.34
2023-05-05T16:39:42.494Z,51.36
2023-05-05T16:42:10.133Z,51.50
2023-05-05T16:44:37.759Z,51.40
2023-05-05T16:47:05.445Z,51.40
2023-05-05T16:49:33.010Z,51.57
2023-05-05T16:52:00.603Z,51.55
2023-05-05T16:54:29.571Z,51.52
2023-05-05T16:56:58.182Z,51.68
2023-05-05T16:59:25.778Z,51.49
2023-05-05T17:01:53.425Z,51.55
2023-05-05T17:04:21.011Z,51.57
2023-05-05T17:06:48.601Z,51.64
2023-05-05T17:09:16.598Z,51.70
2023-05-05T17:11:45.534Z,51.55
2023-05-05T17:14:13.042Z,51.58
2023-05-05T17:16:40.578Z,51.52
2023-05-05T17:19:08.176Z,51.62
2023-05-05T17:21:35.733Z,51.67
2023-05-05T17:24:03.404Z,51.60
2023-05-05T17:26:31.293Z,51.76
2023-05-05T17:29:00.218Z,51.81
2023-05-05T17:31:27.868Z,51.76
2023-05-05T17:33:55.561Z,51.76
2023-05-05T17:36:23.145Z,51.74
2023-05-05T17:38:50.707Z,51.70
2023-05-05T17:41:18.285Z,51.66
2023-05-05T17:43:46.058Z,51.61
2023-05-05T17:46:15.117Z,51.73
2023-05-05T17:48:42.863Z,51.62
2023-05-05T17:51:11.126Z,51.76
2023-05-05T17:53:38.725Z,51.67
2023-05-05T17:56:08.677Z,51.78
2023-05-05T17:58:36.791Z,51.78
2023-05-05T18:01:04.419Z,51.90
2023-05-05T18:03:33.485Z,51.88
2023-05-05T18:06:02.236Z,51.95
2023-05-05T18:08:29.828Z,51.88
2023-05-05T18:10:57.393Z,51.88
2023-05-05T18:13:25.010Z,52.17
2023-05-05T18:15:52.679Z,52.14
2023-05-05T18:18:20.498Z,52.23
2023-05-05T18:20:49.691Z,52.26
2023-05-05T18:23:17.227Z,52.14
2023-05-05T18:25:44.789Z,52.23
2023-05-05T18:28:12.347Z,52.28
2023-05-05T18:30:39.911Z,52.25
2023-05-05T18:33:07.472Z,52.20
2023-05-05T18:35:35.035Z,52.18
2023-05-05T18:38:04.976Z,52.11
2023-05-05T18:40:32.680Z,52.33
2023-05-05T18:43:00.233Z,52.25
2023-05-05T18:45:27.896Z,52.22
2023-05-05T18:47:56.343Z,52.41
2023-05-05T18:50:23.972Z,52.23
2023-05-05T18:52:51.512Z,52.22
2023-05-05T18:55:20.701Z,52.23
2023-05-05T18:57:48.249Z,52.32
2023-05-05T19:00:16.564Z,52.26
2023-05-05T19:02:44.136Z,52.30
2023-05-05T19:05:11.889Z,52.13
2023-05-05T19:07:39.871Z,52.07
2023-05-05T19:10:08.304Z,52.26
2023-05-05T19:12:37.272Z,52.20
2023-05-05T19:15:05.088Z,52.21
2023-05-05T19:17:32.831Z,52.18
2023-05-05T19:20:01.215Z,52.37
2023-05-05T19:22:29.070Z,52.46
2023-05-05T19:24:56.617Z,52.26
2023-05-05T19:27:24.322Z,52.35
2023-05-05T19:29:53.261Z,52.30
2023-05-05T19:32:21.355Z,52.37
2023-05-05T19:34:49.135Z,52.42
2023-05-05T19:37:16.772Z,52.44
2023-05-05T19:39:45.636Z,52.54
2023-05-05T19:42:13.303Z,52.63
2023-05-05T19:44:40.924Z,52.65
2023-05-05T19:47:10.972Z,52.67
2023-05-05T19:49:38.787Z,52.79
2023-05-05T19:52:06.446Z,52.92
2023-05-05T19:54:33.999Z,52.81
2023-05-05T19:57:01.887Z,52.84
2023-05-05T19:59:30.187Z,52.64
2023-05-05T20:01:57.895Z,52.75
2023-05-05T20:04:26.925Z,52.80
2023-05-05T20:06:54.493Z,52.84
2023-05-05T20:09:22.003Z,52.81
2023-05-05T20:11:49.558Z,52.83
2023-05-05T20:14:17.052Z,52.91
2023-05-05T20:16:44.687Z,52.87
2023-05-05T20:19:12.176Z,53.12
2023-05-05T20:21:41.112Z,53.01
2023-05-05T20:24:08.806Z,53.21
2023-05-05T20:26:36.611Z,53.40
2023-05-05T20:29:04.241Z,53.62
2023-05-05T20:31:31.817Z,53.13
2023-05-05T20:33:59.370Z,53.19
2023-05-05T20:36:27.127Z,53.30
2023-05-05T20:38:56.100Z,53.35
2023-05-05T20:41:23.849Z,53.25
2023-05-05T20:43:51.439Z,53.40
2023-05-05T20:46:18.982Z,53.23
2023-05-05T20:48:46.689Z,53.24
2023-05-05T20:51:14.277Z,53.24
2023-05-05T20:53:41.882Z,53.10
2023-05-05T20:56:11.181Z,53.19
2023-05-05T20:58:38.744Z,53.14
2023-05-05T21:01:06.616Z,53.22
2023-05-05T21:03:34.229Z,53.08
2023-05-05T21:06:02.603Z,53.05
2023-05-05T21:08:30.339Z,53.02
2023-05-05T21:10:58.169Z,53.00
2023-05-05T21:13:27.048Z,53.02
2023-05-05T21:15:54.699Z,52.87
2023-05-05T21:18:22.337Z,53.09
2023-05-05T21:20:49.920Z,53.00
2023-05-05T21:23:17.470Z,53.18
2023-05-05T21:25:45.076Z,53.25
2023-05-05T21:28:12.669Z,53.28
2023-05-05T21:30:41.568Z,53.08
2023-05-05T21:33:09.131Z,53.33
2023-05-05T21:35:36.729Z,53.34
2023-05-05T21:38:04.334Z,53.41
2023-05-05T21:40:31.982Z,53.70
2023-05-05T21:42:59.609Z,53.94
2023-05-05T21:45:27.170Z,54.10
2023-05-05T21:47:56.470Z,54.37
2023-05-05T21:50:24.107Z,54.62
2023-05-05T21:52:51.633Z,54.71
2023-05-05T21:55:19.289Z,54.91
2023-05-05T21:57:46.955Z,54.72
2023-05-05T22:00:16.737Z,54.95
2023-05-05T22:02:44.496Z,55.29
2023-05-05T22:05:13.567Z,55.16
2023-05-05T22:07:41.381Z,55.51
2023-05-05T22:10:09.613Z,55.62
2023-05-05T22:12:37.479Z,55.64
2023-05-05T22:15:05.473Z,55.63
2023-05-05T22:17:33.188Z,56.00
2023-05-05T22:20:00.793Z,56.02
2023-05-05T22:22:29.786Z,55.70
2023-05-05T22:24:57.400Z,55.93
2023-05-05T22:27:25.253Z,55.78
2023-05-05T22:29:52.755Z,55.93
2023-05-05T22:32:21.134Z,55.92
2023-05-05T22:34:48.735Z,55.70
2023-05-05T22:37:16.375Z,55.85
2023-05-05T22:39:45.263Z,55.95
2023-05-05T22:42:12.786Z,55.90
2023-05-05T22:44:40.360Z,55.97
2023-05-05T22:47:09.007Z,55.84
2023-05-05T22:49:36.903Z,56.02
2023-05-05T22:52:04.680Z,55.89
2023-05-05T22:54:32.237Z,55.95
2023-05-05T22:57:02.302Z,56.10
2023-05-05T22:59:30.004Z,55.93
2023-05-05T23:01:57.533Z,56.10
2023-05-05T23:04:25.160Z,55.94
2023-05-05T23:06:52.967Z,56.16
2023-05-05T23:09:20.876Z,56.37
2023-05-05T23:11:48.466Z,56.21
2023-05-05T23:14:19.336Z,56.24
2023-05-05T23:16:47.014Z,56.31
2023-05-05T23:19:14.677Z,56.31
2023-05-05T23:21:52.707Z,56.27
2023-05-05T23:24:20.963Z,56.29
2023-05-05T23:26:48.527Z,56.11
2023-05-05T23:29:17.570Z,56.55
